Time;durP1;ratioP1;P1;durP2;ratioP2;P2;SDS_P1;SDS_P2;PMS_P1;PMS_P2;Temp;Humidity;BMP_temperature;BMP_pressure;BME280_temperature;BME280_humidity;BME280_pressure;Samples;Min_cycle;Max_cycle;Signal;HPM_P1;HPM_P2
2022/03/17 00:01:24;;;;;;;29.60;20.23;;;10.30;83.00;;;;;;5011202;28;20074;-82
2022/03/17 00:03:49;;;;;;;27.08;18.75;;;10.20;83.30;;;;;;4993230;28;20046;-82
2022/03/17 00:06:15;;;;;;;33.30;20.75;;;10.30;83.50;;;;;;4976499;28;20050;-83
2022/03/17 00:08:41;;;;;;;30.17;19.48;;;10.20;83.60;;;;;;4975890;28;20050;-84
2022/03/17 00:11:07;;;;;;;33.25;19.55;;;10.20;83.80;;;;;;4994062;28;20046;-81
2022/03/17 00:13:33;;;;;;;30.20;19.60;;;10.20;83.90;;;;;;4978107;28;20504;-85
2022/03/17 00:15:59;;;;;;;29.40;19.88;;;10.20;84.10;;;;;;4986812;28;20053;-82
2022/03/17 00:18:25;;;;;;;34.35;20.83;;;10.20;84.20;;;;;;4977405;28;20642;-84
2022/03/17 00:20:51;;;;;;;33.47;20.30;;;10.20;84.40;;;;;;4993252;28;20104;-82
2022/03/17 00:23:18;;;;;;;32.80;20.27;;;10.20;84.40;;;;;;4993959;28;20527;-83
2022/03/17 00:25:44;;;;;;;30.63;19.17;;;10.30;84.50;;;;;;4976217;28;20053;-82
2022/03/17 00:28:10;;;;;;;36.00;21.05;;;10.20;84.60;;;;;;4962064;28;20065;-82
2022/03/17 00:30:36;;;;;;;31.63;20.20;;;10.20;84.70;;;;;;4992606;28;20415;-84
2022/03/17 00:33:02;;;;;;;33.50;20.33;;;10.20;84.80;;;;;;4993854;28;20057;-84
2022/03/17 00:35:38;;;;;;;33.15;20.27;;;10.20;85.00;;;;;;4993474;28;20050;-81
2022/03/17 00:38:08;;;;;;;30.02;19.50;;;10.20;85.00;;;;;;4987326;28;20121;-82
2022/03/17 00:40:38;;;;;;;35.53;21.08;;;10.20;85.90;;;;;;4989497;28;20092;-82
2022/03/17 00:43:05;;;;;;;34.15;22.10;;;10.20;85.40;;;;;;4961632;28;20141;-84
2022/03/17 00:45:31;;;;;;;33.05;19.55;;;10.20;85.50;;;;;;4992660;28;20096;-84
2022/03/17 00:47:57;;;;;;;29.98;20.63;;;10.10;86.30;;;;;;4959077;28;20112;-82
2022/03/17 00:50:23;;;;;;;34.47;20.33;;;10.10;85.80;;;;;;4947329;28;20481;-82
2022/03/17 00:52:49;;;;;;;33.83;20.88;;;10.10;85.90;;;;;;4966483;28;20089;-83
2022/03/17 00:55:15;;;;;;;29.50;20.80;;;10.10;86.20;;;;;;4994976;28;20492;-83
2022/03/17 00:57:41;;;;;;;31.75;21.83;;;10.10;86.30;;;;;;5008329;28;20100;-82
2022/03/17 01:00:09;;;;;;;32.47;20.83;;;10.10;86.60;;;;;;4976212;28;20061;-83
2022/03/17 01:02:36;;;;;;;35.03;21.98;;;10.10;86.90;;;;;;4976162;28;20078;-84
2022/03/17 01:05:02;;;;;;;31.85;20.92;;;10.00;86.70;;;;;;4991491;28;20160;-85
2022/03/17 01:07:28;;;;;;;32.75;21.48;;;10.00;86.70;;;;;;4973657;28;20054;-83
2022/03/17 01:09:54;;;;;;;32.88;21.38;;;10.00;86.90;;;;;;4989381;28;20046;-82
2022/03/17 01:12:19;;;;;;;32.63;19.92;;;10.00;86.90;;;;;;4971337;28;20053;-81
2022/03/17 01:14:47;;;;;;;33.63;20.83;;;10.00;87.00;;;;;;4984552;28;20056;-84
2022/03/17 01:17:13;;;;;;;32.45;20.08;;;10.00;87.20;;;;;;4975368;28;20053;-82
2022/03/17 01:19:38;;;;;;;34.53;21.80;;;10.00;87.20;;;;;;5012276;28;20042;-86
2022/03/17 01:22:04;;;;;;;30.42;19.73;;;10.00;87.30;;;;;;4960101;28;20480;-82
2022/03/17 01:24:30;;;;;;;32.65;20.95;;;10.00;87.50;;;;;;4976747;28;20050;-82
2022/03/17 01:26:55;;;;;;;29.92;20.27;;;10.00;87.50;;;;;;4992174;28;20038;-82
2022/03/17 01:29:21;;;;;;;32.80;21.42;;;10.00;87.60;;;;;;4991517;28;20487;-83
2022/03/17 01:31:47;;;;;;;30.73;20.45;;;10.00;87.70;;;;;;4955360;28;20092;-84
2022/03/17 01:34:13;;;;;;;37.22;22.83;;;10.00;87.90;;;;;;4970071;28;20129;-82
2022/03/17 01:36:38;;;;;;;32.05;21.48;;;10.00;88.10;;;;;;4960371;28;20577;-86
2022/03/17 01:39:04;;;;;;;30.10;20.55;;;10.00;88.00;;;;;;4976064;28;20058;-82
2022/03/17 01:41:30;;;;;;;29.65;19.85;;;10.00;88.10;;;;;;4954088;28;20054;-82
2022/03/17 01:43:56;;;;;;;32.85;21.17;;;10.10;88.10;;;;;;4992323;28;20052;-82
2022/03/17 01:46:21;;;;;;;29.95;20.17;;;10.00;88.20;;;;;;4976318;28;20118;-82
2022/03/17 01:48:47;;;;;;;33.97;20.70;;;10.10;88.20;;;;;;4976120;28;20104;-82
2022/03/17 01:51:13;;;;;;;31.27;19.55;;;10.10;88.20;;;;;;4957593;28;20061;-81
2022/03/17 01:53:38;;;;;;;33.25;21.38;;;10.10;88.20;;;;;;4990107;28;20050;-82
2022/03/17 01:56:04;;;;;;;31.92;20.77;;;10.10;88.30;;;;;;4988980;28;20048;-82
2022/03/17 01:58:31;;;;;;;31.45;21.25;;;10.10;88.30;;;;;;4991272;28;20060;-83
2022/03/17 02:00:57;;;;;;;29.75;20.85;;;10.10;88.30;;;;;;5008261;28;20038;-83
2022/03/17 02:03:23;;;;;;;30.35;20.40;;;10.20;88.40;;;;;;4992496;28;20125;-85
2022/03/17 02:05:51;;;;;;;32.38;21.20;;;10.20;88.30;;;;;;4990543;28;20054;-82
2022/03/17 02:08:17;;;;;;;32.65;21.35;;;10.20;88.10;;;;;;4957483;28;20516;-81
2022/03/17 02:13:26;;;;;;;34.80;22.52;;;10.20;88.20;;;;;;4994477;28;20099;-83
2022/03/17 02:15:54;;;;;;;33.13;21.02;;;10.30;88.40;;;;;;4979396;28;20385;-81
2022/03/17 02:18:21;;;;;;;31.23;22.15;;;10.20;88.90;;;;;;4988742;28;20048;-82
2022/03/17 02:20:47;;;;;;;33.55;21.58;;;10.20;89.80;;;;;;4975181;28;20052;-84
2022/03/17 02:26:04;;;;;;;33.13;22.05;;;9.90;90.60;;;;;;4995600;28;20078;-83
2022/03/17 02:28:32;;;;;;;32.45;21.00;;;9.90;91.00;;;;;;4976716;28;20402;-83
2022/03/17 02:30:59;;;;;;;35.30;21.50;;;9.90;91.00;;;;;;4988913;28;20068;-82
2022/03/17 02:33:26;;;;;;;31.85;21.35;;;9.90;91.10;;;;;;4990839;28;20125;-83
2022/03/17 02:35:53;;;;;;;34.58;22.42;;;9.90;91.10;;;;;;4974946;28;20039;-82
2022/03/17 02:38:20;;;;;;;35.67;21.95;;;10.00;91.10;;;;;;4974620;28;20057;-81
2022/03/17 02:40:50;;;;;;;35.25;22.55;;;10.00;91.00;;;;;;4966730;28;20077;-82
2022/03/17 02:43:16;;;;;;;30.83;21.70;;;10.00;91.00;;;;;;4991212;28;20042;-81
2022/03/17 02:45:43;;;;;;;35.10;20.98;;;10.00;90.90;;;;;;4976926;28;20527;-83
2022/03/17 02:48:10;;;;;;;34.95;23.33;;;10.10;90.90;;;;;;4955302;28;20038;-82
2022/03/17 02:50:36;;;;;;;32.72;22.70;;;10.10;90.90;;;;;;4975214;28;20050;-83
2022/03/17 02:53:09;;;;;;;33.60;22.15;;;10.20;90.90;;;;;;4974681;28;20506;-83
2022/03/17 02:55:37;;;;;;;35.30;22.70;;;10.20;90.90;;;;;;4974913;28;20069;-83
2022/03/17 02:58:08;;;;;;;31.05;21.73;;;10.20;90.90;;;;;;4990164;28;20133;-84
2022/03/17 03:00:35;;;;;;;34.60;22.90;;;10.20;90.80;;;;;;4970410;28;20082;-82
2022/03/17 03:03:01;;;;;;;37.78;23.20;;;10.20;90.90;;;;;;4956841;28;20042;-85
2022/03/17 03:05:29;;;;;;;32.33;22.13;;;10.20;90.90;;;;;;4989849;28;20054;-83
2022/03/17 03:07:55;;;;;;;36.20;23.10;;;10.20;90.90;;;;;;4975783;28;20105;-82
2022/03/17 03:10:21;;;;;;;36.35;22.65;;;10.20;90.90;;;;;;4981514;28;20124;-86
2022/03/17 03:12:46;;;;;;;33.30;22.52;;;10.20;91.00;;;;;;4973347;28;20113;-88
2022/03/17 03:15:13;;;;;;;34.47;22.48;;;10.30;91.00;;;;;;4993122;28;20068;-82
2022/03/17 03:17:39;;;;;;;34.58;23.05;;;10.30;90.90;;;;;;4982280;28;20130;-82
2022/03/17 03:20:06;;;;;;;34.30;22.52;;;10.30;90.90;;;;;;4989974;28;20330;-82
2022/03/17 03:22:39;;;;;;;31.13;22.08;;;10.30;90.90;;;;;;4974692;28;20133;-82
2022/03/17 03:25:09;;;;;;;33.58;22.55;;;10.30;90.90;;;;;;4989937;28;20050;-81
2022/03/17 03:27:37;;;;;;;33.35;23.90;;;10.30;90.90;;;;;;4959243;28;20058;-81
2022/03/17 03:30:03;;;;;;;34.58;22.77;;;10.30;90.90;;;;;;4991779;28;20049;-82
2022/03/17 03:32:29;;;;;;;32.30;22.65;;;10.40;90.90;;;;;;4978800;28;20050;-84
2022/03/17 03:34:55;;;;;;;32.10;22.88;;;10.40;90.90;;;;;;4987813;28;20472;-81
2022/03/17 03:37:24;;;;;;;33.67;23.08;;;10.40;90.90;;;;;;4977004;28;20047;-82
2022/03/17 03:39:51;;;;;;;32.83;23.40;;;10.40;90.90;;;;;;4965497;28;20046;-84
2022/03/17 03:42:17;;;;;;;34.08;23.08;;;10.40;90.90;;;;;;4984205;28;20038;-83
2022/03/17 03:44:43;;;;;;;33.08;23.08;;;10.50;91.00;;;;;;4973180;28;20100;-84
2022/03/17 03:47:09;;;;;;;34.80;23.67;;;10.50;91.00;;;;;;4972501;28;20042;-82
2022/03/17 03:49:38;;;;;;;34.17;23.88;;;10.50;91.00;;;;;;4973583;28;20475;-81
2022/03/17 03:52:04;;;;;;;37.92;24.65;;;10.50;90.90;;;;;;4973299;28;20078;-81
2022/03/17 03:54:30;;;;;;;35.72;24.52;;;10.50;90.90;;;;;;4975853;28;20096;-82
2022/03/17 03:56:56;;;;;;;34.17;25.00;;;10.50;90.90;;;;;;4973775;28;20089;-82
2022/03/17 03:59:25;;;;;;;31.65;23.40;;;10.60;90.80;;;;;;4984169;28;20050;-81
2022/03/17 04:01:53;;;;;;;37.42;24.80;;;10.60;90.80;;;;;;5005733;28;20428;-86
2022/03/17 04:04:20;;;;;;;37.85;24.33;;;10.60;90.80;;;;;;4966539;28;20514;-82
2022/03/17 04:06:48;;;;;;;37.00;25.05;;;10.60;90.80;;;;;;4988309;28;20046;-83
2022/03/17 04:09:19;;;;;;;33.42;23.88;;;10.60;90.70;;;;;;4984288;28;20042;-82
2022/03/17 04:11:45;;;;;;;34.83;24.10;;;10.60;90.70;;;;;;5007938;28;20048;-83
2022/03/17 04:14:13;;;;;;;35.15;24.33;;;10.60;90.80;;;;;;4970436;28;20112;-82
2022/03/17 04:16:39;;;;;;;34.55;23.83;;;10.60;90.80;;;;;;4967185;28;20125;-81
2022/03/17 04:19:05;;;;;;;33.88;23.58;;;10.60;90.90;;;;;;4987760;28;20050;-82
2022/03/17 04:21:31;;;;;;;35.30;24.75;;;10.60;91.00;;;;;;4967156;28;20049;-82
2022/03/17 04:23:57;;;;;;;35.15;24.10;;;10.60;91.40;;;;;;4946457;28;20049;-83
2022/03/17 04:26:23;;;;;;;37.78;26.67;;;10.50;92.10;;;;;;4988863;28;20038;-81
2022/03/17 04:28:49;;;;;;;37.05;25.77;;;10.40;92.90;;;;;;4957981;28;20054;-81
2022/03/17 04:31:15;;;;;;;41.53;27.48;;;10.20;93.70;;;;;;4986289;28;20046;-81
2022/03/17 04:33:40;;;;;;;39.85;27.58;;;10.10;95.30;;;;;;4987318;28;20046;-83
2022/03/17 04:36:07;;;;;;;45.50;29.88;;;10.00;97.10;;;;;;4985201;28;20038;-83
2022/03/17 04:38:33;;;;;;;44.38;28.83;;;9.90;98.50;;;;;;4989121;28;20129;-81
2022/03/17 04:40:59;;;;;;;46.65;30.60;;;9.80;99.90;;;;;;4974846;28;20540;-82
2022/03/17 04:43:25;;;;;;;46.05;31.63;;;9.70;99.90;;;;;;4992145;28;20051;-82
2022/03/17 04:45:51;;;;;;;49.88;33.13;;;9.70;99.90;;;;;;4952732;28;20046;-84
2022/03/17 04:48:17;;;;;;;52.33;33.03;;;9.60;99.90;;;;;;4993111;28;20057;-83
2022/03/17 04:50:43;;;;;;;55.90;35.10;;;9.50;99.90;;;;;;4992983;28;20076;-83
2022/03/17 04:53:27;;;;;;;58.30;36.28;;;9.50;99.90;;;;;;4992482;28;20070;-81
2022/03/17 04:55:54;;;;;;;65.10;37.45;;;9.40;99.90;;;;;;4981614;28;20057;-89
2022/03/17 04:58:20;;;;;;;61.58;38.03;;;9.40;99.90;;;;;;4977639;28;20523;-84
2022/03/17 05:00:46;;;;;;;65.78;39.15;;;9.30;99.90;;;;;;4977238;28;20082;-84
2022/03/17 05:03:12;;;;;;;73.70;40.58;;;9.20;99.90;;;;;;4977080;28;20074;-83
2022/03/17 05:05:38;;;;;;;68.88;39.08;;;9.20;99.90;;;;;;4953392;28;20055;-82
2022/03/17 05:08:05;;;;;;;75.78;41.63;;;9.20;99.90;;;;;;4990405;28;20046;-83
2022/03/17 05:10:33;;;;;;;73.38;40.90;;;9.10;99.90;;;;;;4990504;28;20050;-83
2022/03/17 05:12:59;;;;;;;87.18;44.40;;;9.20;99.90;;;;;;4995006;28;20086;-84
2022/03/17 05:15:25;;;;;;;95.50;45.95;;;9.10;99.90;;;;;;4978978;28;20082;-83
2022/03/17 05:17:51;;;;;;;93.32;44.90;;;9.10;99.90;;;;;;4994756;28;20081;-84
2022/03/17 05:20:17;;;;;;;74.35;39.83;;;9.10;99.90;;;;;;4995976;28;20049;-84
2022/03/17 05:22:45;;;;;;;84.65;40.90;;;9.10;99.90;;;;;;4972486;28;20377;-83
2022/03/17 05:25:12;;;;;;;61.67;31.63;;;9.20;99.90;;;;;;4991683;28;20061;-86
2022/03/17 05:27:39;;;;;;;56.40;27.70;;;9.20;99.90;;;;;;4992930;28;20128;-83
2022/03/17 05:30:05;;;;;;;16.85;9.20;;;9.20;99.90;;;;;;4976679;28;20054;-84
2022/03/17 05:32:32;;;;;;;18.27;10.55;;;9.00;99.90;;;;;;4976575;28;20043;-83
2022/03/17 05:34:58;;;;;;;17.25;10.20;;;8.70;99.90;;;;;;4976705;28;20419;-83
2022/03/17 05:37:24;;;;;;;13.32;9.70;;;8.70;99.90;;;;;;4971660;28;20046;-83
2022/03/17 05:39:51;;;;;;;11.95;8.98;;;8.50;99.90;;;;;;4977309;28;20054;-84
2022/03/17 05:42:17;;;;;;;14.80;8.63;;;8.30;99.90;;;;;;4981659;28;20046;-84
2022/03/17 05:44:43;;;;;;;16.88;9.48;;;8.10;99.90;;;;;;5007694;28;20053;-84
2022/03/17 05:47:09;;;;;;;14.13;9.63;;;8.00;99.90;;;;;;4979031;28;20052;-82
2022/03/17 05:49:35;;;;;;;12.15;7.57;;;8.00;99.90;;;;;;4979354;28;20068;-83
2022/03/17 05:52:00;;;;;;;16.38;10.30;;;7.80;99.90;;;;;;4990825;28;20046;-84
2022/03/17 05:54:26;;;;;;;14.23;9.90;;;7.80;99.90;;;;;;4971547;28;20076;-82
2022/03/17 05:56:52;;;;;;;16.05;9.48;;;7.80;99.90;;;;;;4991799;28;20069;-84
2022/03/17 05:59:18;;;;;;;22.20;12.48;;;7.80;99.90;;;;;;4978904;28;20152;-83
2022/03/17 06:01:43;;;;;;;21.60;12.13;;;7.80;99.90;;;;;;4995921;28;20443;-82
2022/03/17 06:04:09;;;;;;;21.88;13.48;;;7.70;99.90;;;;;;4975430;28;20054;-81
2022/03/17 06:06:35;;;;;;;28.88;14.65;;;7.60;99.90;;;;;;4979157;28;20050;-82
2022/03/17 06:09:01;;;;;;;29.00;14.27;;;7.60;99.90;;;;;;4993395;28;20116;-82
2022/03/17 06:11:28;;;;;;;23.77;11.80;;;7.60;99.90;;;;;;4978339;28;20046;-81
2022/03/17 06:13:56;;;;;;;25.17;15.68;;;7.50;99.90;;;;;;4976052;28;20057;-80
2022/03/17 06:16:23;;;;;;;23.42;14.65;;;7.60;99.90;;;;;;4966210;28;20170;-81
2022/03/17 06:18:49;;;;;;;25.02;12.07;;;7.50;99.90;;;;;;4975103;28;20047;-83
2022/03/17 06:21:15;;;;;;;31.27;14.93;;;7.50;99.90;;;;;;4955633;28;20054;-81
2022/03/17 06:23:41;;;;;;;25.77;13.98;;;7.50;99.90;;;;;;4988669;28;20046;-81
2022/03/17 06:26:06;;;;;;;26.98;13.63;;;7.50;99.90;;;;;;4949865;28;20507;-83
2022/03/17 06:28:32;;;;;;;27.05;12.98;;;7.50;99.90;;;;;;4987339;28;20046;-82
2022/03/17 06:30:58;;;;;;;28.35;13.68;;;7.40;99.90;;;;;;4973683;28;20046;-88
2022/03/17 06:33:25;;;;;;;28.73;12.73;;;7.40;99.90;;;;;;4970762;28;20049;-83
2022/03/17 06:35:51;;;;;;;24.35;13.43;;;7.40;99.90;;;;;;4983583;28;20045;-84
2022/03/17 06:38:16;;;;;;;24.20;12.48;;;7.40;99.90;;;;;;4956708;28;20145;-84
2022/03/17 06:40:42;;;;;;;23.35;10.38;;;7.40;99.90;;;;;;4973029;28;20584;-83
2022/03/17 06:43:08;;;;;;;21.33;10.05;;;7.40;99.90;;;;;;4975564;28;20423;-82
2022/03/17 06:45:34;;;;;;;29.63;11.35;;;7.30;99.90;;;;;;4989280;28;20468;-83
2022/03/17 06:47:59;;;;;;;22.63;9.52;;;7.30;99.90;;;;;;4989060;28;20050;-88
2022/03/17 06:50:26;;;;;;;28.02;11.23;;;7.30;99.90;;;;;;5006412;28;20045;-83
2022/03/17 06:52:52;;;;;;;20.88;8.05;;;7.30;99.90;;;;;;4975479;28;20057;-83
2022/03/17 06:55:19;;;;;;;26.00;9.63;;;7.30;99.90;;;;;;5003747;28;20136;-81
2022/03/17 06:57:45;;;;;;;18.70;9.13;;;7.30;99.90;;;;;;4973758;28;20050;-82
2022/03/17 07:00:13;;;;;;;21.17;9.13;;;7.30;99.90;;;;;;4980743;28;20061;-86
2022/03/17 07:02:39;;;;;;;17.70;6.97;;;7.30;99.90;;;;;;4972223;28;20093;-80
2022/03/17 07:05:06;;;;;;;15.23;6.40;;;7.30;99.90;;;;;;4972546;28;20109;-81
2022/03/17 07:07:32;;;;;;;15.00;6.65;;;7.30;99.90;;;;;;4972787;28;20126;-82
2022/03/17 07:09:58;;;;;;;17.55;5.95;;;7.20;99.90;;;;;;4957454;28;20054;-81
2022/03/17 07:12:24;;;;;;;11.52;4.10;;;7.30;99.90;;;;;;4989269;28;20053;-81
2022/03/17 07:14:50;;;;;;;10.55;4.22;;;7.20;99.90;;;;;;4973292;28;20050;-80
2022/03/17 07:17:20;;;;;;;14.82;3.90;;;7.20;99.90;;;;;;4989295;28;20132;-81
2022/03/17 07:22:22;;;;;;;;;;;7.20;99.90;;;;;;5008836;28;20173;-80
2022/03/17 07:24:48;;;;;;;11.88;3.40;;;7.30;99.90;;;;;;4976508;28;19925;-80
2022/03/17 07:27:14;;;;;;;13.65;3.78;;;7.30;99.90;;;;;;4976945;28;20053;-81
2022/03/17 07:29:39;;;;;;;16.80;3.97;;;7.30;99.90;;;;;;4971841;28;20049;-81
2022/03/17 07:32:05;;;;;;;13.43;3.70;;;7.30;99.90;;;;;;4970489;28;20484;-84
2022/03/17 07:34:31;;;;;;;9.05;3.50;;;7.30;99.90;;;;;;4972124;28;20050;-81
2022/03/17 07:36:57;;;;;;;14.02;3.33;;;7.30;99.90;;;;;;4971453;28;20140;-82
2022/03/17 07:39:22;;;;;;;14.02;3.53;;;7.30;99.90;;;;;;4983286;28;20049;-81
2022/03/17 07:41:48;;;;;;;16.48;2.95;;;7.40;99.90;;;;;;4981338;28;20065;-81
2022/03/17 07:44:14;;;;;;;14.65;2.60;;;7.40;99.90;;;;;;4961047;28;20546;-81
2022/03/17 07:46:41;;;;;;;11.25;2.97;;;7.40;99.90;;;;;;4934684;28;20433;-81
2022/03/17 07:49:06;;;;;;;15.43;2.78;;;7.40;99.90;;;;;;4955266;28;20051;-82
2022/03/17 07:51:32;;;;;;;13.05;1.98;;;7.40;99.90;;;;;;4955873;28;20046;-85
2022/03/17 07:53:58;;;;;;;9.95;2.00;;;7.40;99.90;;;;;;4955846;28;20042;-83
2022/03/17 07:56:23;;;;;;;9.80;1.67;;;7.40;99.90;;;;;;4960419;28;20100;-83
2022/03/17 07:58:49;;;;;;;10.52;1.95;;;7.40;99.90;;;;;;4961017;28;20471;-83
2022/03/17 08:01:16;;;;;;;11.55;2.15;;;7.30;99.90;;;;;;4975669;28;20140;-83
2022/03/17 08:03:42;;;;;;;15.45;3.80;;;7.30;99.90;;;;;;4992448;28;20134;-83
2022/03/17 08:06:08;;;;;;;10.38;2.20;;;7.30;99.90;;;;;;4956207;28;20145;-83
2022/03/17 08:08:35;;;;;;;11.98;2.05;;;7.30;99.90;;;;;;4974117;28;20054;-84
2022/03/17 08:11:01;;;;;;;13.85;1.50;;;7.30;99.90;;;;;;4991853;28;20064;-86
2022/03/17 08:13:27;;;;;;;15.32;1.88;;;7.40;99.90;;;;;;4997446;28;20058;-81
2022/03/17 08:15:54;;;;;;;12.60;2.20;;;7.30;99.90;;;;;;4984548;28;20039;-81
2022/03/17 08:18:20;;;;;;;17.58;2.03;;;7.40;99.90;;;;;;4974822;28;20468;-81
2022/03/17 08:20:45;;;;;;;17.33;2.03;;;7.40;99.90;;;;;;4979879;28;20046;-81
2022/03/17 08:23:15;;;;;;;12.40;2.90;;;7.30;99.90;;;;;;4966626;28;20058;-80
2022/03/17 08:25:44;;;;;;;10.60;1.67;;;7.30;99.90;;;;;;4999319;28;20054;-81
2022/03/17 08:28:10;;;;;;;9.05;1.45;;;7.20;99.90;;;;;;4975789;28;20054;-81
2022/03/17 08:30:37;;;;;;;17.15;1.90;;;7.20;99.90;;;;;;4977076;28;20042;-81
2022/03/17 08:33:03;;;;;;;15.32;1.85;;;7.10;99.90;;;;;;4976683;28;20521;-82
2022/03/17 08:35:29;;;;;;;11.40;1.73;;;7.10;99.90;;;;;;4994619;28;20054;-82
2022/03/17 08:37:57;;;;;;;21.92;2.65;;;7.20;99.90;;;;;;4992070;28;20046;-81
2022/03/17 08:40:23;;;;;;;11.25;2.15;;;7.20;99.90;;;;;;4993633;28;20411;-82
2022/03/17 08:42:48;;;;;;;15.55;2.90;;;7.30;99.90;;;;;;4987730;28;20507;-82
2022/03/17 08:50:45;;;;;;;18.10;2.72;;;7.30;99.90;;;;;;4992151;28;20121;-82
2022/03/17 08:53:10;;;;;;;13.35;1.70;;;7.30;99.90;;;;;;4982887;28;20053;-83
2022/03/17 08:55:37;;;;;;;16.42;1.73;;;7.30;99.90;;;;;;4987621;28;20054;-83
2022/03/17 08:58:07;;;;;;;16.77;2.42;;;7.30;99.90;;;;;;4977192;28;20042;-83
2022/03/17 09:00:34;;;;;;;13.57;2.33;;;7.20;99.90;;;;;;4979210;28;20042;-83
2022/03/17 09:03:04;;;;;;;12.57;2.58;;;7.30;99.90;;;;;;4981044;28;20105;-81
2022/03/17 09:05:33;;;;;;;16.60;2.40;;;7.30;99.90;;;;;;4993015;28;20061;-84
2022/03/17 09:08:00;;;;;;;16.15;3.28;;;7.20;99.90;;;;;;4971772;28;20098;-81
2022/03/17 09:10:26;;;;;;;16.83;2.10;;;7.20;99.90;;;;;;4991560;28;20042;-81
2022/03/17 09:12:55;;;;;;;21.23;6.38;;;7.20;99.90;;;;;;4974859;28;20502;-81
2022/03/17 09:15:22;;;;;;;21.38;3.03;;;7.20;99.90;;;;;;4991093;28;20078;-82
2022/03/17 09:17:48;;;;;;;20.05;3.58;;;7.30;99.90;;;;;;4975700;28;20193;-82
2022/03/17 09:20:15;;;;;;;19.73;2.78;;;7.40;99.90;;;;;;4943376;28;20054;-83
2022/03/17 09:22:42;;;;;;;8.80;1.73;;;7.60;99.90;;;;;;4974140;28;20042;-82
2022/03/17 09:25:09;;;;;;;16.33;2.38;;;7.80;99.90;;;;;;4962481;28;20141;-82
2022/03/17 09:27:34;;;;;;;15.43;2.38;;;7.90;99.90;;;;;;4991817;28;20042;-83
2022/03/17 09:30:00;;;;;;;15.82;2.28;;;7.90;99.90;;;;;;4975908;28;20049;-82
2022/03/17 09:32:26;;;;;;;11.43;2.15;;;7.90;99.90;;;;;;4975488;28;20046;-83
2022/03/17 09:34:52;;;;;;;14.60;2.42;;;7.90;99.90;;;;;;4975252;28;20042;-83
2022/03/17 09:37:18;;;;;;;12.30;2.20;;;7.90;99.90;;;;;;4959198;28;20411;-83
2022/03/17 09:39:47;;;;;;;15.27;2.30;;;7.90;99.90;;;;;;4975677;28;20097;-85
2022/03/17 09:42:15;;;;;;;11.80;2.05;;;7.90;99.90;;;;;;4969846;28;20061;-87
2022/03/17 09:44:46;;;;;;;16.92;2.42;;;7.90;99.90;;;;;;4973382;28;20061;-84
2022/03/17 09:47:15;;;;;;;15.30;2.33;;;7.90;99.90;;;;;;4959033;28;20121;-86
2022/03/17 09:49:43;;;;;;;19.88;4.30;;;8.00;99.90;;;;;;4991605;28;20050;-84
2022/03/17 09:52:14;;;;;;;19.33;2.53;;;8.00;99.90;;;;;;5005002;28;20054;-83
2022/03/17 09:54:41;;;;;;;11.30;1.90;;;8.00;99.90;;;;;;4990641;28;20125;-83
2022/03/17 09:57:07;;;;;;;15.55;2.40;;;7.90;99.90;;;;;;4973844;28;20399;-85
2022/03/17 09:59:33;;;;;;;10.60;1.95;;;8.00;99.90;;;;;;4974138;28;20800;-85
2022/03/17 10:02:01;;;;;;;12.82;2.67;;;8.10;99.90;;;;;;4974815;28;20491;-88
2022/03/17 10:04:39;;;;;;;14.75;2.03;;;8.20;99.90;;;;;;4988094;28;20098;-86
2022/03/17 10:07:07;;;;;;;13.77;2.63;;;8.30;99.90;;;;;;4972117;28;20046;-85
2022/03/17 10:09:33;;;;;;;15.70;3.47;;;8.50;99.90;;;;;;4992062;28;20038;-87
2022/03/17 10:12:05;;;;;;;12.50;2.72;;;8.80;99.90;;;;;;4985628;28;20056;-85
2022/03/17 10:14:39;;;;;;;11.77;2.25;;;9.00;99.90;;;;;;4969172;28;20047;-83
2022/03/17 10:17:10;;;;;;;8.40;2.00;;;9.20;99.90;;;;;;5000161;28;20051;-85
2022/03/17 10:19:36;;;;;;;12.32;2.83;;;9.30;99.90;;;;;;4990005;28;20046;-83
2022/03/17 10:22:14;;;;;;;12.13;1.90;;;9.40;99.90;;;;;;4990269;28;20090;-83
2022/03/17 10:24:52;;;;;;;12.10;2.17;;;9.50;99.90;;;;;;4959057;28;20046;-83
2022/03/17 10:27:45;;;;;;;12.88;2.45;;;9.50;99.90;;;;;;4971900;28;20054;-83
2022/03/17 10:30:12;;;;;;;8.95;1.70;;;9.70;99.60;;;;;;4971578;28;20064;-84
2022/03/17 10:32:39;;;;;;;14.40;2.65;;;9.70;99.90;;;;;;4989350;28;20057;-82
2022/03/17 10:35:08;;;;;;;10.18;4.13;;;9.90;99.90;;;;;;4989284;28;20092;-83
2022/03/17 10:37:37;;;;;;;7.80;1.88;;;10.40;99.90;;;;;;4972801;28;20078;-83
2022/03/17 10:40:10;;;;;;;10.38;1.60;;;10.50;98.20;;;;;;4990726;28;20110;-84
2022/03/17 10:42:36;;;;;;;11.75;1.83;;;10.60;95.90;;;;;;4990787;28;20046;-83
2022/03/17 10:45:08;;;;;;;10.02;2.00;;;10.60;95.90;;;;;;4989273;28;20435;-82
2022/03/17 10:47:39;;;;;;;10.55;1.80;;;10.50;95.80;;;;;;4978200;28;20046;-84
2022/03/17 10:50:19;;;;;;;7.07;1.77;;;10.60;95.30;;;;;;4988268;28;20054;-83
2022/03/17 10:52:47;;;;;;;11.32;2.30;;;11.10;94.10;;;;;;4988928;28;20042;-85
2022/03/17 10:55:14;;;;;;;10.25;1.92;;;11.90;92.70;;;;;;4987307;28;20050;-84
2022/03/17 10:57:40;;;;;;;12.20;2.05;;;12.20;90.70;;;;;;4962838;28;20054;-83
2022/03/17 11:00:19;;;;;;;10.52;1.70;;;12.10;88.90;;;;;;4985174;28;20061;-86
2022/03/17 11:02:46;;;;;;;15.23;2.38;;;12.80;88.90;;;;;;4966718;28;20053;-84
2022/03/17 11:05:14;;;;;;;9.93;1.70;;;13.80;82.90;;;;;;4978483;28;20146;-83
2022/03/17 11:07:39;;;;;;;6.93;1.30;;;13.80;75.60;;;;;;4949222;28;20083;-82
2022/03/17 11:10:07;;;;;;;7.93;1.58;;;14.00;75.90;;;;;;4957706;28;20821;-83
2022/03/17 11:12:34;;;;;;;14.15;1.95;;;13.60;72.30;;;;;;4968403;28;20050;-85
2022/03/17 11:15:01;;;;;;;9.63;1.70;;;13.50;73.20;;;;;;4970832;28;20042;-82
2022/03/17 11:17:35;;;;;;;11.43;1.88;;;14.10;73.70;;;;;;4982147;28;20402;-83
2022/03/17 11:20:07;;;;;;;10.95;1.80;;;14.80;68.50;;;;;;4986174;28;20048;-83
2022/03/17 11:22:34;;;;;;;9.55;1.42;;;15.00;66.70;;;;;;4972421;28;20105;-83
2022/03/17 11:25:23;;;;;;;9.82;2.10;;;14.60;66.70;;;;;;4973013;28;20056;-83
2022/03/17 11:27:56;;;;;;;11.02;2.30;;;13.60;67.20;;;;;;4986371;28;20174;-82
2022/03/17 11:30:22;;;;;;;11.30;2.10;;;13.50;70.00;;;;;;4972467;28;20085;-84
2022/03/17 11:32:56;;;;;;;10.88;2.22;;;14.50;68.30;;;;;;4988066;28;20415;-84
2022/03/17 11:35:25;;;;;;;8.05;1.92;;;15.10;63.80;;;;;;4987222;28;20043;-82
2022/03/17 11:38:15;;;;;;;10.20;2.35;;;14.90;64.60;;;;;;4978971;28;20128;-85
2022/03/17 11:41:07;;;;;;;10.13;2.05;;;14.20;61.70;;;;;;4962902;28;20380;-83
2022/03/17 11:44:00;;;;;;;9.98;2.28;;;13.00;64.60;;;;;;4966790;28;20053;-82
2022/03/17 11:46:36;;;;;;;9.90;2.05;;;13.10;66.90;;;;;;4986073;28;20050;-83
2022/03/17 11:49:28;;;;;;;8.77;1.90;;;13.10;64.60;;;;;;5007908;28;20085;-81
2022/03/17 11:51:56;;;;;;;11.35;2.13;;;12.80;64.20;;;;;;4982464;28;20062;-82
2022/03/17 11:54:22;;;;;;;12.13;2.45;;;12.50;66.50;;;;;;4982831;28;20050;-83
2022/03/17 11:56:53;;;;;;;9.70;2.13;;;12.70;67.70;;;;;;4971951;28;20039;-84
2022/03/17 11:59:23;;;;;;;8.57;2.30;;;13.20;67.00;;;;;;4974370;28;20048;-86
2022/03/17 12:01:49;;;;;;;9.55;1.92;;;13.10;65.70;;;;;;4959925;28;20582;-82
2022/03/17 12:04:21;;;;;;;11.90;2.78;;;12.60;66.10;;;;;;4959699;28;20084;-83
2022/03/17 12:06:55;;;;;;;7.78;1.70;;;12.30;68.90;;;;;;4991341;28;20038;-84
2022/03/17 12:09:40;;;;;;;8.18;1.70;;;13.20;67.60;;;;;;4955718;28;20463;-88
2022/03/17 12:12:23;;;;;;;6.55;1.73;;;14.90;65.50;;;;;;4973747;28;20062;-85
2022/03/17 12:14:49;;;;;;;8.00;2.00;;;16.60;58.90;;;;;;4975771;28;20496;-83
2022/03/17 12:17:17;;;;;;;7.32;1.75;;;17.80;55.30;;;;;;4959818;28;20082;-83
2022/03/17 12:19:51;;;;;;;9.57;2.40;;;17.90;51.40;;;;;;4972036;28;20050;-83
2022/03/17 12:22:32;;;;;;;9.32;2.05;;;18.00;51.90;;;;;;4959400;28;20642;-83
2022/03/17 12:25:11;;;;;;;16.35;2.67;;;17.90;49.00;;;;;;4973429;28;20050;-83
2022/03/17 12:27:37;;;;;;;9.00;2.00;;;17.80;51.10;;;;;;4958925;28;20046;-83
2022/03/17 12:30:08;;;;;;;9.23;2.28;;;18.50;50.30;;;;;;4959561;28;20097;-82
2022/03/17 12:32:55;;;;;;;5.63;1.60;;;19.00;48.10;;;;;;4975079;28;20042;-81
2022/03/17 12:35:39;;;;;;;10.10;2.03;;;19.40;44.10;;;;;;4957286;28;20058;-85
2022/03/17 12:38:07;;;;;;;11.70;2.05;;;18.80;45.20;;;;;;4959374;28;20050;-84
2022/03/17 12:40:35;;;;;;;8.98;2.33;;;18.10;46.60;;;;;;4958369;28;20060;-81
2022/03/17 12:43:12;;;;;;;9.43;2.22;;;17.90;48.30;;;;;;4975063;28;20104;-81
2022/03/17 12:45:38;;;;;;;12.32;2.20;;;18.60;46.40;;;;;;4974984;28;20066;-81
2022/03/17 12:48:09;;;;;;;9.38;2.00;;;19.20;46.80;;;;;;4975150;28;20088;-83
2022/03/17 12:50:35;;;;;;;9.27;2.10;;;20.20;44.80;;;;;;4975158;28;20104;-82
2022/03/17 12:53:01;;;;;;;6.20;1.60;;;19.60;44.40;;;;;;4991591;28;20050;-82
2022/03/17 12:55:27;;;;;;;9.02;2.05;;;18.40;43.50;;;;;;4958408;28;20046;-83